Time;durP1;ratioP1;P1;durP2;ratioP2;P2;SDS_P1;SDS_P2;PMS_P1;PMS_P2;Temp;Humidity;BMP_temperature;BMP_pressure;BME280_temperature;BME280_humidity;BME280_pressure;Samples;Min_cycle;Max_cycle;Signal;HPM_P1;HPM_P2
2023/01/27 06:02:20;;;;;;;;;1.67;1.67;;;;;8.99;63.93;-15819.09;5001089;23;45687;-87
2023/01/27 06:04:45;;;;;;;;;4.00;1.00;;;;;9.28;63.86;-15825.09;4851836;29;45376;-86
2023/01/27 06:07:10;;;;;;;;;1.00;1.00;;;;;9.28;63.66;-15494.59;4845197;29;47531;-85
2023/01/27 06:09:37;;;;;;;;;1.00;1.00;;;;;9.05;63.64;-15490.06;4858896;29;45490;-85
2023/01/27 06:12:03;;;;;;;;;1.00;1.00;;;;;9.29;63.82;-15494.91;4857316;29;45652;-86
2023/01/27 06:14:28;;;;;;;;;2.00;2.00;;;;;9.28;63.46;-15494.59;4859937;29;45386;-85
2023/01/27 06:16:53;;;;;;;;;3.00;1.00;;;;;8.94;64.00;-15818.03;4859523;29;45606;-86
2023/01/27 06:19:19;;;;;;;;;1.67;1.67;;;;;9.29;63.99;-15494.91;4858991;29;45419;-85
2023/01/27 06:21:44;;;;;;;;;1.00;1.00;;;;;9.28;63.68;-15494.69;4857740;29;45743;-87
2023/01/27 06:24:09;;;;;;;;;1.67;1.67;;;;;8.95;63.40;-15488.03;4854053;29;45420;-93
2023/01/27 06:26:35;;;;;;;;;2.00;2.00;;;;;9.08;63.21;-15160.25;4849609;29;48095;-91
2023/01/27 06:29:01;;;;;;;;;1.33;1.00;;;;;9.29;63.68;-15164.34;4843983;29;45448;-91
2023/01/27 06:31:27;;;;;;;;;2.67;1.67;;;;;9.02;63.22;-14828.53;4846563;29;45554;-85
2023/01/27 06:33:52;;;;;;;;;2.33;2.00;;;;;9.19;63.11;-15162.25;4861279;29;45423;-85
2023/01/27 06:36:20;;;;;;;;;2.00;2.00;;;;;9.34;63.02;-15165.16;4860673;29;47181;-89
2023/01/27 06:38:47;;;;;;;;;2.00;2.00;;;;;9.34;63.13;-15165.25;4859724;29;45552;-87
2023/01/27 06:41:12;;;;;;;;;1.67;1.67;;;;;9.34;62.97;-14834.56;4853695;29;45718;-85
2023/01/27 06:43:41;;;;;;;;;1.00;1.00;;;;;9.23;62.95;-14832.63;4840652;29;45447;-85
2023/01/27 06:46:06;;;;;;;;;2.00;1.33;;;;;9.21;63.01;-14832.13;4854214;29;46604;-86
2023/01/27 06:48:32;;;;;;;;;4.00;3.00;;;;;9.30;63.15;-14833.88;4844710;29;45498;-87
2023/01/27 06:50:57;;;;;;;;;4.00;2.67;;;;;9.19;63.25;-15162.34;4846946;29;45565;-86
2023/01/27 06:53:23;;;;;;;;;2.33;2.00;;;;;9.39;63.43;-15166.16;4859519;29;45434;-86
2023/01/27 06:55:54;;;;;;;;;10.00;6.00;;;;;9.33;62.68;-14834.47;4849695;29;45465;-85
2023/01/27 06:58:19;;;;;;;;;3.00;3.00;;;;;9.32;62.58;-14834.25;4849282;29;45412;-85
2023/01/27 07:00:45;;;;;;;;;3.00;3.00;;;;;9.39;63.17;-14835.63;4854256;29;45728;-86
2023/01/27 07:03:11;;;;;;;;;5.00;4.00;;;;;9.36;62.87;-14834.94;4849056;29;45691;-86
2023/01/27 07:05:39;;;;;;;;;2.00;2.00;;;;;9.41;62.22;-14505.25;4843093;29;47216;-84
2023/01/27 07:08:04;;;;;;;;;5.67;3.33;;;;;9.43;62.47;-14836.31;4833304;29;45972;-86
2023/01/27 07:10:29;;;;;;;;;5.00;4.00;;;;;9.36;62.24;-14504.31;4843655;29;45474;-85
2023/01/27 07:13:17;;;;;;;;;4.00;3.00;;;;;9.40;62.93;-14835.81;4827477;29;46040;-86
2023/01/27 07:15:42;;;;;;;;;4.33;3.00;;;;;9.44;62.60;-14836.59;4843754;29;45596;-86
2023/01/27 07:18:09;;;;;;;;;3.67;3.00;;;;;9.44;63.15;-14836.50;4843708;29;45360;-86
2023/01/27 07:20:35;;;;;;;;;5.00;2.67;;;;;9.39;62.37;-14835.53;4843376;29;45516;-86
2023/01/27 07:23:03;;;;;;;;;3.67;3.67;;;;;9.25;62.40;-14502.41;4843828;29;46019;-86
2023/01/27 07:25:30;;;;;;;;;3.00;3.00;;;;;9.43;62.71;-14505.72;4843334;29;47383;-86
2023/01/27 07:28:00;;;;;;;;;6.00;4.00;;;;;9.45;62.52;-14506.00;4843443;29;45479;-86
2023/01/27 07:30:27;;;;;;;;;2.33;2.33;;;;;9.27;62.61;-14502.81;4843773;29;45438;-86
2023/01/27 07:32:54;;;;;;;;;4.00;2.67;;;;;9.47;62.80;-14506.38;4844069;29;45579;-86
2023/01/27 07:35:20;;;;;;;;;4.33;3.00;;;;;9.49;62.93;-14837.47;4842475;29;46834;-86
2023/01/27 07:37:46;;;;;;;;;2.67;2.00;;;;;9.14;62.89;-14830.78;4843442;29;45891;-86
2023/01/27 07:40:12;;;;;;;;;2.00;2.00;;;;;9.52;62.94;-14838.16;4843011;29;45458;-86
2023/01/27 07:42:38;;;;;;;;;4.00;3.00;;;;;9.52;62.72;-14838.16;4835079;29;45633;-86
2023/01/27 07:45:04;;;;;;;;;4.00;4.00;;;;;9.38;63.29;-15166.03;4842943;29;45604;-83
2023/01/27 07:47:29;;;;;;;;;2.00;2.00;;;;;9.54;63.54;-15169.13;4841551;29;45457;-83
2023/01/27 07:49:55;;;;;;;;;3.67;3.00;;;;;9.54;63.27;-15169.03;4838764;29;45727;-83
2023/01/27 07:52:20;;;;;;;;;4.67;3.00;;;;;9.53;63.22;-15168.94;4837846;29;45481;-84
2023/01/27 07:54:46;;;;;;;;;3.67;2.67;;;;;9.55;63.69;-15169.25;4840288;29;45886;-85
2023/01/27 07:57:11;;;;;;;;;3.00;3.00;;;;;8.93;63.31;-15157.16;4826208;29;45669;-85
2023/01/27 07:59:37;;;;;;;;;2.67;2.67;;;;;9.37;63.14;-14835.22;4841959;29;45488;-84
2023/01/27 08:02:02;;;;;;;;;8.00;4.00;;;;;9.35;63.28;-14834.84;4847088;29;45483;-84
2023/01/27 08:04:27;;;;;;;;;3.00;3.00;;;;;9.52;63.23;-14838.16;4860334;29;45903;-84
2023/01/27 08:06:53;;;;;;;;;5.00;3.67;;;;;9.54;63.27;-14838.34;4859548;29;45557;-84
2023/01/27 08:09:18;;;;;;;;;6.67;4.00;;;;;9.54;63.28;-14838.44;4861234;29;45699;-85
2023/01/27 08:11:45;;;;;;;;;5.67;3.33;;;;;9.48;63.62;-15168.03;4861391;29;45428;-84
2023/01/27 08:14:10;;;;;;;;;3.00;3.00;;;;;9.46;63.66;-15167.53;4861968;29;45493;-85
2023/01/27 08:16:35;;;;;;;;;4.00;3.67;;;;;9.54;63.49;-15169.03;4844947;29;45448;-85
2023/01/27 08:19:01;;;;;;;;;3.67;3.00;;;;;9.60;63.46;-15170.34;4860885;29;45512;-85
2023/01/27 08:21:31;;;;;;;;;2.67;2.67;;;;;9.61;63.49;-15170.53;4860884;29;45366;-85
2023/01/27 08:23:57;;;;;;;;;3.00;3.00;;;;;9.61;63.26;-15170.53;4861697;29;46026;-85
2023/01/27 08:26:22;;;;;;;;;5.00;4.00;;;;;9.46;63.47;-15167.53;4845126;29;45537;-86
2023/01/27 08:28:47;;;;;;;;;5.00;4.67;;;;;9.56;63.08;-14838.72;4862363;29;45472;-86
2023/01/27 08:31:15;;;;;;;;;3.67;3.67;;;;;9.34;63.14;-14834.66;4862110;29;45500;-83
2023/01/27 08:33:42;;;;;;;;;3.67;2.33;;;;;8.93;63.24;-14826.78;4861264;29;46219;-84
2023/01/27 08:36:11;;;;;;;;;7.00;4.00;;;;;9.59;63.00;-14839.31;4858475;29;45893;-84
2023/01/27 08:38:37;;;;;;;;;6.33;5.00;;;;;9.46;63.28;-14836.88;4857736;29;45523;-83
2023/01/27 08:41:07;;;;;;;;;6.00;4.33;;;;;9.49;62.71;-14837.56;4859685;29;45921;-85
2023/01/27 08:43:32;;;;;;;;;3.00;3.00;;;;;9.49;62.71;-14837.56;4861765;29;45461;-88
2023/01/27 08:45:59;;;;;;;;;4.67;4.67;;;;;9.48;62.25;-14506.66;4859468;29;45796;-87
2023/01/27 08:48:26;;;;;;;;;4.67;4.00;;;;;9.61;62.18;-14178.22;4861314;29;45550;-86
2023/01/27 08:50:52;;;;;;;;;6.33;4.33;;;;;9.62;62.32;-14178.41;4861296;29;45434;-86
2023/01/27 08:53:17;;;;;;;;;6.67;6.67;;;;;9.36;62.22;-14173.66;4861796;29;45455;-90
2023/01/27 08:55:42;;;;;;;;;5.00;5.00;;;;;9.48;62.21;-14175.94;4861834;29;45438;-88
2023/01/27 08:58:08;;;;;;;;;5.33;5.33;;;;;9.49;61.60;-13845.28;4861800;29;45468;-88
2023/01/27 09:00:33;;;;;;;;;3.33;3.33;;;;;9.65;61.54;-13848.03;4859877;29;45830;-89
2023/01/27 09:02:58;;;;;;;;;9.33;5.67;;;;;9.55;61.21;-13846.25;4850541;29;46267;-89
2023/01/27 09:05:24;;;;;;;;;6.67;5.00;;;;;9.69;61.05;-13517.94;4862143;29;45374;-90
2023/01/27 09:07:49;;;;;;;;;8.00;4.00;;;;;9.56;60.88;-13515.59;4859319;29;45877;-89
2023/01/27 09:10:15;;;;;;;;;6.33;6.33;;;;;9.69;60.81;-13186.91;4862823;29;45661;-92
2023/01/27 09:12:41;;;;;;;;;4.00;2.00;;;;;9.36;60.78;-13181.50;4864294;29;45732;-93
2023/01/27 09:15:07;;;;;;;;;9.00;6.00;;;;;9.35;59.97;-12850.63;4841199;29;46275;-92
2023/01/27 09:17:32;;;;;;;;;7.00;6.00;;;;;9.66;60.42;-12524.59;4845994;29;45382;-90
2023/01/27 09:19:58;;;;;;;;;5.00;5.00;;;;;8.30;60.42;-12503.81;4873571;29;45420;-91
2023/01/27 09:22:23;;;;;;;;;6.00;6.00;;;;;8.98;60.18;-12514.13;4854705;29;48172;-91
2023/01/27 09:24:48;;;;;;;;;5.00;5.00;;;;;8.84;59.96;-12512.03;4860193;29;45381;-90
2023/01/27 09:27:14;;;;;;;;;5.00;3.67;;;;;9.27;59.93;-12187.78;4860882;29;45355;-91
2023/01/27 09:29:39;;;;;;;;;7.67;7.00;;;;;9.38;59.91;-12189.44;4860189;29;45786;-92
2023/01/27 09:32:05;;;;;;;;;8.33;5.67;;;;;9.72;60.01;-12194.41;4857321;29;47438;-93
2023/01/27 09:34:30;;;;;;;;;4.00;4.00;;;;;9.34;60.16;-12188.78;4843680;29;45659;-91
2023/01/27 09:37:01;;;;;;;;;7.00;5.67;;;;;9.68;59.58;-11862.78;4856359;29;45410;-93
2023/01/27 09:39:29;;;;;;;;;7.00;5.33;;;;;9.69;59.05;-11863.00;4863641;29;45359;-93
2023/01/27 09:41:58;;;;;;;;;5.67;5.00;;;;;9.75;59.08;-11532.63;4846429;29;47083;-93
2023/01/27 09:44:41;;;;;;;;;4.67;4.00;;;;;9.72;58.83;-11201.22;4857162;29;45531;-87
2023/01/27 09:47:28;;;;;;;;;5.00;5.00;;;;;9.55;59.13;-11198.87;4858660;29;45491;-85
2023/01/27 09:50:24;;;;;;;;;8.67;6.67;;;;;9.70;59.15;-11200.97;4859274;29;45456;-86
2023/01/27 09:52:58;;;;;;;;;7.33;7.33;;;;;9.45;59.02;-11197.69;4857174;29;46110;-85
2023/01/27 09:55:43;;;;;;;;;6.67;5.00;;;;;9.70;59.33;-10869.84;4841123;29;45613;-84
2023/01/27 09:58:23;;;;;;;;;5.33;5.00;;;;;9.66;58.66;-10538.13;4860852;29;45534;-85
2023/01/27 10:00:58;;;;;;;;;8.00;5.00;;;;;9.64;58.84;-10537.88;4851755;29;45882;-84
2023/01/27 10:03:48;;;;;;;;;11.00;8.00;;;;;9.63;58.89;-10537.81;4866200;29;46655;-83
2023/01/27 10:06:28;;;;;;;;;9.67;7.33;;;;;9.29;59.03;-10533.75;4863416;29;45586;-82
2023/01/27 10:09:12;;;;;;;;;5.67;5.33;;;;;9.65;58.99;-10538.00;4857168;29;45795;-82
2023/01/27 10:11:47;;;;;;;;;4.33;4.33;;;;;9.67;58.74;-10538.31;4861077;29;45485;-83
2023/01/27 10:14:24;;;;;;;;;5.00;5.00;;;;;9.67;58.70;-10207.13;4856842;29;47276;-84
2023/01/27 10:16:56;;;;;;;;;6.33;6.00;;;;;9.70;58.78;-10207.47;4856402;29;46159;-84
2023/01/27 10:19:49;;;;;;;;;9.33;6.33;;;;;9.70;58.41;-9876.25;4846611;29;45398;-84
2023/01/27 10:22:33;;;;;;;;;6.00;5.00;;;;;9.71;58.44;-9876.31;4862888;29;45646;-84
2023/01/27 10:25:11;;;;;;;;;10.33;10.33;;;;;9.59;57.98;-9874.97;4863372;29;46636;-84
2023/01/27 10:27:41;;;;;;;;;5.00;5.00;;;;;9.42;58.21;-9542.06;4863599;29;45450;-84
2023/01/27 10:30:20;;;;;;;;;6.67;6.00;;;;;9.69;58.03;-9213.59;4863327;29;45817;-84
2023/01/27 10:33:11;;;;;;;;;13.33;8.67;;;;;9.67;58.23;-9213.44;4863747;29;45472;-84
2023/01/27 10:35:42;;;;;;;;;9.67;6.33;;;;;9.68;58.45;-9213.53;4859821;29;45685;-83
2023/01/27 10:38:32;;;;;;;;;7.33;4.00;;;;;9.68;58.07;-8882.25;4856487;29;45562;-84
2023/01/27 10:41:14;;;;;;;;;8.33;6.00;;;;;9.69;58.02;-8882.34;4859787;29;45456;-84
2023/01/27 10:44:00;;;;;;;;;5.00;5.00;;;;;9.69;58.10;-8882.34;4857927;29;45603;-85
2023/01/27 10:46:58;;;;;;;;;5.33;5.33;;;;;9.69;57.81;-8882.28;4863324;29;45474;-85
2023/01/27 10:49:31;;;;;;;;;5.00;4.00;;;;;9.42;58.02;-8879.75;4822760;29;45572;-85
2023/01/27 10:52:10;;;;;;;;;4.33;4.00;;;;;9.23;58.11;-8878.00;4823558;29;45494;-85
2023/01/27 10:54:46;;;;;;;;;12.67;6.00;;;;;9.32;57.76;-8547.69;4824136;29;45496;-85
2023/01/27 10:57:28;;;;;;;;;6.33;5.67;;;;;9.36;57.85;-8548.06;4823196;29;47070;-85
2023/01/27 10:59:59;;;;;;;;;9.33;7.00;;;;;9.59;58.51;-8550.06;4823346;29;45546;-84
2023/01/27 11:02:40;;;;;;;;;9.00;8.00;;;;;9.44;58.25;-8217.56;4814868;29;45519;-84
2023/01/27 11:05:27;;;;;;;;;6.00;3.33;;;;;9.57;57.95;-8218.59;4823671;29;45565;-83
2023/01/27 11:08:02;;;;;;;;;7.33;5.33;;;;;9.61;57.77;-8218.94;4823024;29;45638;-84
2023/01/27 11:10:37;;;;;;;;;6.33;5.00;;;;;9.57;57.80;-7887.31;4819025;29;45579;-85
2023/01/27 11:13:05;;;;;;;;;4.33;4.00;;;;;9.55;57.61;-7887.16;4823581;29;45886;-85
2023/01/27 11:15:34;;;;;;;;;5.00;5.00;;;;;9.50;57.87;-8218.03;4823410;29;45487;-86
2023/01/27 11:18:19;;;;;;;;;6.33;4.00;;;;;9.38;58.18;-8217.00;4822872;29;45462;-86
2023/01/27 11:20:51;;;;;;;;;8.00;6.67;;;;;9.48;58.11;-7886.63;4822515;29;45580;-85
2023/01/27 11:23:20;;;;;;;;;5.00;4.67;;;;;9.58;57.98;-8218.72;4823330;29;45586;-84
2023/01/27 11:26:09;;;;;;;;;10.00;8.67;;;;;9.58;58.38;-8218.72;4852412;29;45573;-87
2023/01/27 11:28:40;;;;;;;;;10.00;7.00;;;;;9.37;57.87;-7885.72;4860244;29;46374;-85
2023/01/27 11:31:31;;;;;;;;;7.67;7.67;;;;;9.56;57.94;-7887.22;4862717;29;45516;-86
2023/01/27 11:34:35;;;;;;;;;10.33;7.00;;;;;9.45;58.40;-8217.66;4862766;29;45551;-84
2023/01/27 11:37:20;;;;;;;;;6.00;6.00;;;;;9.62;58.43;-8219.06;4858197;29;45436;-82
2023/01/27 11:39:46;;;;;;;;;10.00;7.00;;;;;9.47;58.42;-8549.06;4856477;29;46548;-84
2023/01/27 11:42:12;;;;;;;;;9.00;8.00;;;;;9.66;58.54;-8550.75;4864558;29;45386;-83
2023/01/27 11:44:39;;;;;;;;;9.00;9.00;;;;;9.70;58.95;-8551.06;4862799;29;45584;-83
2023/01/27 11:47:06;;;;;;;;;7.00;6.00;;;;;9.56;58.19;-8549.78;4862448;29;45359;-83
2023/01/27 11:49:46;;;;;;;;;8.00;7.33;;;;;9.50;58.41;-8549.28;4861650;29;45872;-84
2023/01/27 11:52:15;;;;;;;;;8.67;7.00;;;;;9.70;58.28;-8551.06;4861970;29;45514;-83
2023/01/27 11:55:13;;;;;;;;;8.67;8.00;;;;;9.59;58.98;-8550.09;4862203;29;45457;-84
2023/01/27 11:57:45;;;;;;;;;7.00;6.00;;;;;9.70;58.52;-8551.06;4845037;29;45978;-84
2023/01/27 12:00:27;;;;;;;;;6.33;6.00;;;;;9.48;58.49;-8549.09;4862079;29;45456;-84
2023/01/27 12:03:30;;;;;;;;;10.33;7.67;;;;;9.68;58.49;-8219.56;4869975;29;45714;-84
2023/01/27 12:06:03;;;;;;;;;9.67;9.00;;;;;9.68;58.72;-8550.91;4855757;29;45586;-84
2023/01/27 12:08:45;;;;;;;;;7.67;7.67;;;;;9.50;58.73;-8549.34;4852637;29;45804;-84
2023/01/27 12:11:21;;;;;;;;;6.67;6.67;;;;;9.46;58.91;-8548.94;4844722;29;45692;-85
2023/01/27 12:13:50;;;;;;;;;5.33;5.33;;;;;9.68;59.06;-8550.91;4855274;29;45536;-84
2023/01/27 12:16:16;;;;;;;;;7.00;6.67;;;;;9.60;59.05;-8550.16;4854374;29;45602;-85
2023/01/27 12:18:53;;;;;;;;;8.00;8.00;;;;;9.69;58.97;-8882.34;4848117;29;45498;-85
2023/01/27 12:21:19;;;;;;;;;9.00;7.00;;;;;9.70;59.01;-8882.44;4846483;29;46359;-83
2023/01/27 12:23:52;;;;;;;;;9.00;6.33;;;;;9.70;58.81;-8882.44;4826801;29;45450;-83
2023/01/27 12:26:33;;;;;;;;;9.33;8.00;;;;;9.72;59.01;-8882.56;4843170;29;45363;-84
2023/01/27 12:29:04;;;;;;;;;9.67;8.67;;;;;9.72;58.85;-8882.56;4844442;29;45428;-84
2023/01/27 12:31:41;;;;;;;;;9.00;7.00;;;;;9.32;59.27;-8878.78;4832459;29;46101;-84
2023/01/27 12:34:20;;;;;;;;;10.67;7.33;;;;;9.64;59.46;-9213.06;4844144;29;45419;-84
2023/01/27 12:36:47;;;;;;;;;9.00;7.33;;;;;9.72;59.61;-8882.63;4841889;29;45627;-84
2023/01/27 12:39:35;;;;;;;;;10.00;8.00;;;;;9.70;59.43;-8882.44;4842873;29;45770;-85
2023/01/27 12:42:00;;;;;;;;;10.00;7.33;;;;;9.74;58.89;-8882.78;4845214;29;46358;-84
2023/01/27 12:44:41;;;;;;;;;7.33;7.00;;;;;9.21;59.01;-8877.78;4843617;29;45713;-84
2023/01/27 12:47:24;;;;;;;;;9.33;7.00;;;;;9.72;59.33;-8882.56;4845065;29;45396;-84
2023/01/27 12:49:50;;;;;;;;;8.00;8.00;;;;;9.44;59.33;-8879.97;4844729;29;45579;-84
2023/01/27 12:52:20;;;;;;;;;10.00;7.00;;;;;9.73;59.45;-8882.69;4844673;29;46444;-84
2023/01/27 12:54:46;;;;;;;;;10.67;9.33;;;;;9.75;59.40;-9214.16;4827382;29;46323;-85
2023/01/27 12:57:16;;;;;;;;;11.67;10.00;;;;;9.73;59.66;-9214.03;4845050;29;45702;-84
2023/01/27 12:59:51;;;;;;;;;12.67;9.67;;;;;9.38;59.13;-8879.34;4842998;29;46080;-84
2023/01/27 13:02:22;;;;;;;;;11.67;7.33;;;;;9.63;59.14;-8881.72;4844250;29;48083;-86
2023/01/27 13:04:54;;;;;;;;;9.67;9.33;;;;;9.32;59.21;-8878.78;4856177;29;45554;-87
2023/01/27 13:07:28;;;;;;;;;11.33;7.33;;;;;9.44;59.37;-8879.97;4834616;29;45640;-86
2023/01/27 13:10:01;;;;;;;;;10.67;8.33;;;;;9.67;59.33;-8882.16;4861182;29;45544;-85
2023/01/27 13:12:48;;;;;;;;;11.33;9.67;;;;;9.60;59.40;-8881.47;4860553;29;45448;-86
2023/01/27 13:15:15;;;;;;;;;10.00;9.00;;;;;9.11;59.30;-8876.84;4843731;29;45929;-85
2023/01/27 13:17:44;;;;;;;;;8.67;7.33;;;;;9.12;59.65;-8876.91;4861300;29;45397;-86
2023/01/27 13:20:16;;;;;;;;;9.33;8.33;;;;;9.75;59.49;-8882.81;4861501;29;45393;-84
2023/01/27 13:22:52;;;;;;;;;8.67;7.33;;;;;9.72;59.43;-8882.56;4860594;29;45479;-84
2023/01/27 13:25:23;;;;;;;;;11.00;8.33;;;;;9.64;59.43;-9213.13;4860350;29;45400;-84
2023/01/27 13:27:53;;;;;;;;;9.33;8.33;;;;;9.60;59.67;-8881.44;4861247;29;45461;-85
2023/01/27 13:30:27;;;;;;;;;8.00;7.00;;;;;9.71;59.36;-8882.47;4844804;29;45440;-86
2023/01/27 13:32:58;;;;;;;;;9.33;8.33;;;;;9.70;59.25;-8551.06;4860053;29;46193;-86
2023/01/27 13:35:33;;;;;;;;;6.67;6.67;;;;;9.52;59.05;-8549.47;4861032;29;45895;-85
2023/01/27 13:38:03;;;;;;;;;8.00;7.00;;;;;9.41;59.37;-8548.47;4841049;29;45460;-85
2023/01/27 13:40:35;;;;;;;;;9.33;7.00;;;;;9.44;59.44;-8548.78;4856068;29;45417;-84
2023/01/27 13:43:07;;;;;;;;;9.00;7.00;;;;;9.62;59.09;-8219.06;4843945;29;47009;-85
2023/01/27 13:45:40;;;;;;;;;11.33;8.00;;;;;9.29;58.79;-8216.34;4860558;29;45381;-87
2023/01/27 13:48:23;;;;;;;;;9.67;7.00;;;;;9.44;58.45;-7886.28;4861171;29;45505;-87
2023/01/27 13:50:57;;;;;;;;;10.00;8.00;;;;;9.66;57.98;-7888.03;4860779;29;45450;-88
2023/01/27 13:53:22;;;;;;;;;8.67;8.00;;;;;9.68;58.17;-7888.19;4854751;29;45503;-87
2023/01/27 13:56:06;;;;;;;;;5.00;5.00;;;;;9.70;58.54;-7888.34;4861007;29;45977;-87
2023/01/27 13:59:05;;;;;;;;;8.00;6.67;;;;;9.72;58.05;-7888.47;4861033;29;45481;-88
2023/01/27 14:01:41;;;;;;;;;7.00;5.67;;;;;9.74;58.23;-7888.63;4862624;29;45422;-88
2023/01/27 14:04:18;;;;;;;;;9.33;6.00;;;;;9.75;58.43;-7888.66;4850519;29;45674;-88
2023/01/27 14:07:02;;;;;;;;;6.00;5.00;;;;;9.72;58.01;-7557.06;4855893;29;45515;-87
2023/01/27 14:09:30;;;;;;;;;6.00;5.00;;;;;9.72;58.08;-7557.06;4859454;29;45571;-87
2023/01/27 14:12:25;;;;;;;;;7.33;7.33;;;;;9.62;58.34;-7556.34;4858822;29;45564;-87
2023/01/27 14:15:25;;;;;;;;;5.33;5.33;;;;;9.71;58.42;-7557.00;4839663;29;45502;-88
2023/01/27 14:18:06;;;;;;;;;5.00;5.00;;;;;9.38;58.73;-7885.84;4840780;29;46158;-88
2023/01/27 14:20:48;;;;;;;;;5.67;4.67;;;;;9.55;58.59;-7887.13;4848783;29;45405;-86
2023/01/27 14:23:53;;;;;;;;;7.67;6.33;;;;;9.50;58.79;-7886.75;4841682;29;45461;-88
2023/01/27 14:26:30;;;;;;;;;10.67;8.00;;;;;9.66;59.10;-7888.03;4837947;29;45458;-86
2023/01/27 14:29:20;;;;;;;;;5.67;4.00;;;;;9.63;59.46;-7887.75;4842650;29;45520;-86
2023/01/27 14:31:51;;;;;;;;;11.00;9.00;;;;;9.59;59.29;-7887.47;4817391;29;45745;-87
2023/01/27 14:34:48;;;;;;;;;9.33;7.67;;;;;9.57;59.57;-8218.59;4840141;29;45580;-87
2023/01/27 14:37:32;;;;;;;;;7.67;7.67;;;;;9.58;59.85;-8218.72;4839869;29;45427;-85
2023/01/27 14:40:14;;;;;;;;;11.00;9.33;;;;;9.56;59.81;-8218.53;4831438;29;45508;-88
2023/01/27 14:43:13;;;;;;;;;6.00;5.00;;;;;9.54;59.62;-8218.38;4840632;29;45745;-88
2023/01/27 14:45:51;;;;;;;;;9.33;8.00;;;;;9.56;59.71;-8218.50;4840405;29;45450;-88
2023/01/27 14:48:41;;;;;;;;;10.33;8.33;;;;;9.55;59.36;-8218.41;4847965;29;47822;-87
2023/01/27 14:51:30;;;;;;;;;8.00;6.00;;;;;9.56;59.44;-8218.50;4840421;29;45556;-87
2023/01/27 14:54:09;;;;;;;;;8.00;7.00;;;;;9.34;59.33;-8216.72;4845022;29;45382;-87
2023/01/27 14:56:45;;;;;;;;;10.00;9.00;;;;;9.53;59.62;-8218.28;4844635;29;45811;-87
2023/01/27 14:59:25;;;;;;;;;10.33;8.00;;;;;9.50;59.50;-7886.78;4843246;29;45783;-87
2023/01/27 15:01:54;;;;;;;;;7.67;7.67;;;;;9.50;59.80;-7886.75;4842660;29;45657;-86
2023/01/27 15:04:43;;;;;;;;;5.33;5.00;;;;;9.46;59.45;-7886.47;4815295;29;1263744;-86
2023/01/27 15:07:16;;;;;;;;;9.00;6.67;;;;;9.47;59.57;-7886.56;4852176;29;45488;-88
2023/01/27 15:09:50;;;;;;;;;7.67;6.00;;;;;9.47;59.25;-7886.50;4834467;29;47166;-87
2023/01/27 15:12:46;;;;;;;;;9.00;9.00;;;;;9.45;59.40;-7886.34;4860329;29;45961;-86
2023/01/27 15:15:47;;;;;;;;;7.67;7.67;;;;;9.46;59.52;-7886.44;4849563;29;45422;-87
2023/01/27 15:18:43;;;;;;;;;12.33;6.67;;;;;9.47;59.96;-7886.50;4854145;29;45542;-86
2023/01/27 15:21:08;;;;;;;;;8.00;6.67;;;;;9.45;60.03;-7886.41;4847073;29;48219;-88
2023/01/27 15:23:49;;;;;;;;;7.33;7.00;;;;;9.44;59.48;-7886.28;4859589;29;45455;-84
2023/01/27 15:26:20;;;;;;;;;9.33;6.67;;;;;9.25;59.84;-8216.00;4850341;29;45470;-89
2023/01/27 15:28:45;;;;;;;;;7.67;7.67;;;;;9.41;60.00;-7886.06;4841132;29;45521;-87
2023/01/27 15:31:14;;;;;;;;;7.00;6.33;;;;;9.46;59.96;-7886.47;4857945;29;47143;-87
2023/01/27 15:33:53;;;;;;;;;8.00;6.33;;;;;9.45;59.53;-7886.34;4860888;29;45551;-87
2023/01/27 15:36:28;;;;;;;;;7.00;7.00;;;;;9.44;59.89;-7886.31;4839607;29;45386;-89
2023/01/27 15:39:01;;;;;;;;;7.00;7.00;;;;;9.43;59.89;-7886.19;4831329;29;45436;-90
2023/01/27 15:41:27;;;;;;;;;8.00;7.00;;;;;9.43;59.74;-7886.19;4851599;29;45629;-89
2023/01/27 15:44:16;;;;;;;;;10.00;7.00;;;;;9.40;60.16;-7886.00;4852700;29;45394;-86
2023/01/27 15:46:50;;;;;;;;;9.67;8.00;;;;;9.15;59.85;-7552.88;4850586;29;45467;-86
2023/01/27 15:49:26;;;;;;;;;9.00;7.67;;;;;8.97;60.03;-7882.66;4850450;29;45818;-87
2023/01/27 15:51:55;;;;;;;;;6.67;6.67;;;;;9.12;59.77;-7552.69;4853239;29;46538;-86
2023/01/27 15:54:30;;;;;;;;;9.67;7.67;;;;;9.27;59.69;-7222.56;4842010;29;45759;-87
2023/01/27 15:57:03;;;;;;;;;10.00;8.00;;;;;9.32;59.71;-7554.16;4846886;29;45503;-87
2023/01/27 15:59:32;;;;;;;;;11.33;9.67;;;;;9.03;59.50;-7220.97;4861960;29;45468;-86
2023/01/27 16:02:02;;;;;;;;;14.67;12.00;;;;;9.35;59.47;-7554.38;4859793;29;46557;-85
2023/01/27 16:04:29;;;;;;;;;14.00;9.00;;;;;9.38;59.63;-7554.59;4832062;29;45521;-87
2023/01/27 16:07:01;;;;;;;;;5.33;5.33;;;;;9.37;59.18;-7223.25;4843297;29;45549;-87
2023/01/27 16:09:36;;;;;;;;;6.00;6.00;;;;;9.36;59.85;-7554.44;4842485;29;45574;-85
2023/01/27 16:12:22;;;;;;;;;10.67;7.33;;;;;9.29;59.50;-7222.72;4815816;29;47254;-86
2023/01/27 16:15:00;;;;;;;;;9.67;8.33;;;;;9.12;59.80;-7552.66;4811326;29;45684;-86
2023/01/27 16:17:29;;;;;;;;;10.00;9.00;;;;;9.21;59.76;-7553.31;4841526;29;45481;-87
2023/01/27 16:20:16;;;;;;;;;11.33;11.00;;;;;9.02;59.47;-7220.91;4837498;29;45589;-85
2023/01/27 16:22:46;;;;;;;;;10.00;7.67;;;;;9.38;59.40;-7223.28;4838695;29;46147;-84
2023/01/27 16:25:21;;;;;;;;;14.33;8.67;;;;;9.39;59.48;-7554.66;4843285;29;45408;-85
2023/01/27 16:27:58;;;;;;;;;10.33;9.00;;;;;9.41;59.50;-7554.81;4840359;29;46078;-85
2023/01/27 16:30:37;;;;;;;;;17.00;12.00;;;;;9.42;59.39;-7554.84;4838701;29;45441;-85
2023/01/27 16:33:11;;;;;;;;;11.00;7.00;;;;;9.25;59.38;-7222.44;4842773;29;45509;-84
2023/01/27 16:36:05;;;;;;;;;14.67;10.00;;;;;9.41;59.51;-7223.53;4823905;29;45816;-85
2023/01/27 16:38:35;;;;;;;;;11.67;9.67;;;;;9.27;59.20;-7222.56;4837130;29;45513;-85
2023/01/27 16:41:08;;;;;;;;;9.00;8.00;;;;;9.18;59.31;-7221.97;4842862;29;45463;-85
2023/01/27 16:43:41;;;;;;;;;9.00;7.00;;;;;9.41;59.43;-7223.53;4821154;29;47490;-88
2023/01/27 16:46:24;;;;;;;;;11.67;11.67;;;;;9.40;59.35;-7554.69;4830924;29;45604;-87
2023/01/27 16:48:51;;;;;;;;;9.67;8.00;;;;;9.05;59.52;-7221.09;4842698;29;45557;-88
2023/01/27 16:51:23;;;;;;;;;15.00;14.00;;;;;9.43;59.47;-7554.97;4826387;29;45853;-88
2023/01/27 16:53:51;;;;;;;;;9.33;9.33;;;;;9.43;59.68;-7554.94;4842632;29;46017;-87
2023/01/27 16:56:18;;;;;;;;;8.00;8.00;;;;;9.30;59.54;-7222.78;4841735;29;45541;-87
2023/01/27 16:58:46;;;;;;;;;11.00;9.00;;;;;8.89;59.86;-7551.00;4831594;29;45739;-87
2023/01/27 17:01:27;;;;;;;;;11.67;7.33;;;;;9.03;59.86;-7552.06;4829426;29;45459;-87
2023/01/27 17:03:59;;;;;;;;;10.67;9.33;;;;;8.87;59.53;-7550.91;4852650;29;46283;-86
2023/01/27 17:06:27;;;;;;;;;17.67;10.33;;;;;9.41;59.58;-7223.47;4860030;29;45474;-86
2023/01/27 17:08:52;;;;;;;;;12.00;10.00;;;;;8.94;59.70;-7220.34;4859522;29;45748;-87
2023/01/27 17:11:31;;;;;;;;;7.33;7.33;;;;;9.12;59.73;-7552.66;4854664;29;45437;-86
2023/01/27 17:14:02;;;;;;;;;21.67;18.67;;;;;9.01;59.50;-7551.91;4856535;29;46161;-87
2023/01/27 17:16:33;;;;;;;;;14.00;13.33;;;;;8.98;59.88;-7551.66;4860778;29;45433;-88
2023/01/27 17:19:16;;;;;;;;;12.67;10.00;;;;;9.35;59.55;-7554.34;4859551;29;45552;-86
2023/01/27 17:21:47;;;;;;;;;9.67;9.33;;;;;9.31;59.93;-7554.06;4860616;29;45767;-86
2023/01/27 17:24:18;;;;;;;;;9.00;8.00;;;;;9.45;60.04;-7555.09;4843809;29;46223;-86
2023/01/27 17:26:46;;;;;;;;;12.00;10.33;;;;;9.46;59.77;-7886.44;4849406;29;45923;-87
2023/01/27 17:29:20;;;;;;;;;15.67;10.00;;;;;9.39;59.78;-7885.88;4838366;29;45417;-85
2023/01/27 17:31:45;;;;;;;;;15.00;12.33;;;;;9.47;60.12;-7886.50;4855958;29;45553;-84
2023/01/27 17:34:19;;;;;;;;;12.67;12.00;;;;;9.20;59.96;-7884.44;4858992;29;47022;-86
2023/01/27 17:37:16;;;;;;;;;12.67;9.33;;;;;9.01;59.98;-7882.97;4852175;29;45879;-85
2023/01/27 17:39:43;;;;;;;;;13.67;12.00;;;;;9.45;60.29;-7886.41;4855225;29;45562;-89
2023/01/27 17:42:14;;;;;;;;;13.67;13.67;;;;;9.45;60.46;-8217.66;4860156;29;45397;-86
2023/01/27 17:44:39;;;;;;;;;11.00;8.33;;;;;9.07;60.36;-8214.44;4859953;29;47329;-85
2023/01/27 17:47:06;;;;;;;;;12.33;11.00;;;;;8.65;60.25;-8210.94;4841661;29;45512;-84
2023/01/27 17:49:47;;;;;;;;;17.33;13.67;;;;;9.11;60.34;-8214.78;4858642;29;45706;-84
2023/01/27 17:52:23;;;;;;;;;16.00;11.33;;;;;9.46;60.57;-8217.75;4857405;29;45484;-86
2023/01/27 17:54:50;;;;;;;;;20.67;15.33;;;;;9.40;60.31;-8217.19;4856737;29;46299;-85
2023/01/27 17:57:20;;;;;;;;;16.00;14.33;;;;;9.46;60.49;-8217.69;4858031;29;45620;-84
2023/01/27 17:59:50;;;;;;;;;14.00;14.00;;;;;9.45;60.80;-8548.88;4854706;29;46004;-84
2023/01/27 18:02:25;;;;;;;;;15.00;13.33;;;;;9.46;61.14;-8548.97;4866610;29;45576;-88
2023/01/27 18:04:53;;;;;;;;;17.67;15.00;;;;;9.46;60.91;-8548.94;4850829;29;46391;-84
2023/01/27 18:07:18;;;;;;;;;11.67;11.33;;;;;9.46;60.83;-8548.97;4849784;29;45586;-86